Abiquiu, NM (87510)

8:59 AM MST on February 09, 2016 (GMT -0700)
Las Silvestres | | Change Station
CLOSE
Current Station
Personal Weather Station
Location: Abiquiu, NM
Elevation: 6010 ft
Nearby Weather Stations

Elev 6010 ft 36.22 °N, 106.37 °W | Updated 8 seconds ago

Clear
Clear
31.9 °F
Feels Like 28 °F
N
4.0
Wind Variable Wind from WNW
Gusts 9.0 mph

Today
High -- | Low -- °F
--% Chance of Precip.
Yesterday
High -- | Low -- °F
Precip. -- in
Pressure 30.44 in
Visibility 10.0 miles
Clouds Clear
Windchill 28 °F
Dew Point 23 °F
Humidity 69%
Rainfall 0.00 in
Snow Depth Not available.
6:59 AM 5:39 PM
New Moon, 1% visible
METAR KLAM 091535Z AUTO 01007KT 10SM CLR 02/M07 A3044 RMK AO2 T00221070
Pressure 30.44 in
Visibility 10.0 miles
Clouds Clear
Windchill 28 °F
Dew Point 23 °F
Humidity 69%
Rainfall 0.00 in
Snow Depth Not available.
6:59 AM 5:39 PM
New Moon, 1% visible
METAR KLAM 091535Z AUTO 01007KT 10SM CLR 02/M07 A3044 RMK AO2 T00221070

10-Day Weather Forecast

Almanac

Astronomy

Feb. 09, 2016 Rise Set
Actual Time
Civil Twilight
Nautical Twilight
Astronomical Twilight
Moon
Length of Visible Light
Length of Day
Tomorrow will be .
, % of the Moon is Illuminated

Today's Extremes

State Highs State Lows

Community

WunderPhotos

Upload Photos

1,891,628 photos uploaded!

WunderBlog® & News

Nearby

Air Quality

  Air Quality AQ Index Pollutant
Not available.

Snow Depth

Station Depth Elevation

Earthquake Activity

City Distance Mag. Time & Date
Minimum magnitude displayed is 2.5.

Coastal Water Temperatures

Place Temperature

Stations

Nearby Weather Stations

Station Location Temp. Windchill Dew Point Humidity Wind Precip. Elev Updated Type
                   

Watches & Warnings

There are currently no watches in effect.